sensor_id;sensor_type;location;lat;lon;timestamp;pressure;altitude;pressure_sealevel;temperature
76381;BMP280;65202;52.520;10.528;2023-07-13T00:02:24;100685.19;;;20.13
76381;BMP280;65202;52.520;10.528;2023-07-13T00:04:53;100696.16;;;20.00
76381;BMP280;65202;52.520;10.528;2023-07-13T00:07:20;100693.63;;;19.96
76381;BMP280;65202;52.520;10.528;2023-07-13T00:09:48;100706.25;;;19.90
76381;BMP280;65202;52.520;10.528;2023-07-13T00:12:33;100711.31;;;19.88
76381;BMP280;65202;52.520;10.528;2023-07-13T00:15:06;100702.13;;;20.08
76381;BMP280;65202;52.520;10.528;2023-07-13T00:17:39;100698.88;;;20.39
76381;BMP280;65202;52.520;10.528;2023-07-13T00:20:07;100698.88;;;20.39
76381;BMP280;65202;52.520;10.528;2023-07-13T00:22:35;100705.59;;;20.25
76381;BMP280;65202;52.520;10.528;2023-07-13T00:25:02;100713.03;;;19.91
76381;BMP280;65202;52.520;10.528;2023-07-13T00:27:31;100716.53;;;20.03
76381;BMP280;65202;52.520;10.528;2023-07-13T00:29:58;100713.16;;;20.09
76381;BMP280;65202;52.520;10.528;2023-07-13T00:32:26;100706.38;;;20.09
76381;BMP280;65202;52.520;10.528;2023-07-13T00:34:53;100719.06;;;20.09
76381;BMP280;65202;52.520;10.528;2023-07-13T00:37:21;100719.94;;;20.10
76381;BMP280;65202;52.520;10.528;2023-07-13T00:39:48;100726.47;;;19.75
76381;BMP280;65202;52.520;10.528;2023-07-13T00:42:15;100719.63;;;19.66
76381;BMP280;65202;52.520;10.528;2023-07-13T00:45:01;100716.31;;;19.75
76381;BMP280;65202;52.520;10.528;2023-07-13T00:47:30;100722.19;;;19.69
76381;BMP280;65202;52.520;10.528;2023-07-13T00:49:58;100722.97;;;19.64
76381;BMP280;65202;52.520;10.528;2023-07-13T00:52:26;100711.13;;;19.61
76381;BMP280;65202;52.520;10.528;2023-07-13T00:54:55;100717.84;;;19.58
76381;BMP280;65202;52.520;10.528;2023-07-13T00:57:23;100717.84;;;19.55
76381;BMP280;65202;52.520;10.528;2023-07-13T00:59:54;100715.38;;;19.64
76381;BMP280;65202;52.520;10.528;2023-07-13T01:02:27;100720.53;;;19.74
76381;BMP280;65202;52.520;10.528;2023-07-13T01:04:56;100722.88;;;19.49
76381;BMP280;65202;52.520;10.528;2023-07-13T01:07:24;100724.69;;;19.62
76381;BMP280;65202;52.520;10.528;2023-07-13T01:09:52;100729.00;;;19.76
76381;BMP280;65202;52.520;10.528;2023-07-13T01:12:19;100723.88;;;19.70
76381;BMP280;65202;52.520;10.528;2023-07-13T01:14:46;100725.50;;;19.60
76381;BMP280;65202;52.520;10.528;2023-07-13T01:17:13;100728.84;;;19.56
76381;BMP280;65202;52.520;10.528;2023-07-13T01:19:44;100723.69;;;19.42
76381;BMP280;65202;52.520;10.528;2023-07-13T01:22:14;100716.75;;;19.28
76381;BMP280;65202;52.520;10.528;2023-07-13T01:24:45;100720.31;;;19.48
76381;BMP280;65202;52.520;10.528;2023-07-13T01:27:19;100729.72;;;19.60
76381;BMP280;65202;52.520;10.528;2023-07-13T01:29:52;100724.50;;;19.44
76381;BMP280;65202;52.520;10.528;2023-07-13T01:32:22;100735.78;;;19.77
76381;BMP280;65202;52.520;10.528;2023-07-13T01:34:52;100732.19;;;19.52
76381;BMP280;65202;52.520;10.528;2023-07-13T01:37:25;100724.63;;;19.59
76381;BMP280;65202;52.520;10.528;2023-07-13T01:39:53;100718.63;;;19.47
76381;BMP280;65202;52.520;10.528;2023-07-13T01:42:20;100725.53;;;19.65
76381;BMP280;65202;52.520;10.528;2023-07-13T01:44:47;100734.72;;;19.52
76381;BMP280;65202;52.520;10.528;2023-07-13T01:47:15;100727.53;;;19.04
76381;BMP280;65202;52.520;10.528;2023-07-13T01:49:42;100732.53;;;18.97
76381;BMP280;65202;52.520;10.528;2023-07-13T01:52:09;100741.44;;;18.62
76381;BMP280;65202;52.520;10.528;2023-07-13T01:54:36;100732.72;;;18.41
76381;BMP280;65202;52.520;10.528;2023-07-13T01:57:04;100732.75;;;18.45
76381;BMP280;65202;52.520;10.528;2023-07-13T01:59:31;100734.47;;;19.20
76381;BMP280;65202;52.520;10.528;2023-07-13T02:02:00;100729.81;;;18.82
76381;BMP280;65202;52.520;10.528;2023-07-13T02:04:27;100721.50;;;18.98
76381;BMP280;65202;52.520;10.528;2023-07-13T02:06:55;100724.88;;;18.94
76381;BMP280;65202;52.520;10.528;2023-07-13T02:09:22;100732.81;;;19.24
76381;BMP280;65202;52.520;10.528;2023-07-13T02:11:49;100734.53;;;19.26
76381;BMP280;65202;52.520;10.528;2023-07-13T02:14:17;100736.28;;;18.58
76381;BMP280;65202;52.520;10.528;2023-07-13T02:16:44;100741.03;;;19.03
76381;BMP280;65202;52.520;10.528;2023-07-13T02:19:11;100741.78;;;18.94
76381;BMP280;65202;52.520;10.528;2023-07-13T02:21:39;100747.69;;;18.95
76381;BMP280;65202;52.520;10.528;2023-07-13T02:24:06;100744.66;;;18.51
76381;BMP280;65202;52.520;10.528;2023-07-13T02:26:33;100746.88;;;18.95
76381;BMP280;65202;52.520;10.528;2023-07-13T02:29:01;100752.66;;;18.81
76381;BMP280;65202;52.520;10.528;2023-07-13T02:31:29;100742.63;;;18.93
76381;BMP280;65202;52.520;10.528;2023-07-13T02:33:56;100751.91;;;18.92
76381;BMP280;65202;52.520;10.528;2023-07-13T02:36:23;100746.94;;;19.02
76381;BMP280;65202;52.520;10.528;2023-07-13T02:38:50;100741.69;;;18.85
76381;BMP280;65202;52.520;10.528;2023-07-13T02:41:18;100746.19;;;19.08
76381;BMP280;65202;52.520;10.528;2023-07-13T02:43:45;100746.06;;;18.99
76381;BMP280;65202;52.520;10.528;2023-07-13T02:46:12;100749.31;;;18.85
76381;BMP280;65202;52.520;10.528;2023-07-13T02:48:40;100755.25;;;18.88
76381;BMP280;65202;52.520;10.528;2023-07-13T02:51:08;100748.47;;;18.87
76381;BMP280;65202;52.520;10.528;2023-07-13T02:53:36;100755.34;;;18.97
76381;BMP280;65202;52.520;10.528;2023-07-13T02:56:04;100750.28;;;18.97
76381;BMP280;65202;52.520;10.528;2023-07-13T02:58:32;100759.47;;;18.86
76381;BMP280;65202;52.520;10.528;2023-07-13T03:00:59;100752.69;;;18.87
76381;BMP280;65202;52.520;10.528;2023-07-13T03:03:32;100748.53;;;18.93
76381;BMP280;65202;52.520;10.528;2023-07-13T03:06:01;100749.47;;;19.01
76381;BMP280;65202;52.520;10.528;2023-07-13T03:08:30;100738.44;;;18.99
76381;BMP280;65202;52.520;10.528;2023-07-13T03:11:01;100747.88;;;19.09
76381;BMP280;65202;52.520;10.528;2023-07-13T03:13:34;100739.25;;;18.92
76381;BMP280;65202;52.520;10.528;2023-07-13T03:16:01;100737.50;;;18.88
76381;BMP280;65202;52.520;10.528;2023-07-13T03:18:29;100731.56;;;18.86
76381;BMP280;65202;52.520;10.528;2023-07-13T03:20:57;100733.31;;;18.93
76381;BMP280;65202;52.520;10.528;2023-07-13T03:23:25;100746.59;;;18.71
76381;BMP280;65202;52.520;10.528;2023-07-13T03:26:14;100747.22;;;17.92
76381;BMP280;65202;52.520;10.528;2023-07-13T03:28:43;100745.66;;;18.63
76381;BMP280;65202;52.520;10.528;2023-07-13T03:31:19;100739.31;;;19.01
76381;BMP280;65202;52.520;10.528;2023-07-13T03:33:48;100742.41;;;18.75
76381;BMP280;65202;52.520;10.528;2023-07-13T03:36:19;100749.88;;;18.61
76381;BMP280;65202;52.520;10.528;2023-07-13T03:38:51;100750.75;;;18.63
76381;BMP280;65202;52.520;10.528;2023-07-13T03:41:24;100759.28;;;18.71
76381;BMP280;65202;52.520;10.528;2023-07-13T03:43:52;100752.31;;;18.55
76381;BMP280;65202;52.520;10.528;2023-07-13T03:46:20;100749.03;;;18.62
76381;BMP280;65202;52.520;10.528;2023-07-13T03:48:47;100757.38;;;18.54
76381;BMP280;65202;52.520;10.528;2023-07-13T03:51:16;100753.19;;;18.57
76381;BMP280;65202;52.520;10.528;2023-07-13T03:53:46;100754.81;;;18.52
76381;BMP280;65202;52.520;10.528;2023-07-13T03:56:16;100764.69;;;18.32
76381;BMP280;65202;52.520;10.528;2023-07-13T03:58:46;100759.59;;;18.29
76381;BMP280;65202;52.520;10.528;2023-07-13T04:01:16;100750.56;;;18.50
76381;BMP280;65202;52.520;10.528;2023-07-13T04:03:45;100753.03;;;18.45
76381;BMP280;65202;52.520;10.528;2023-07-13T04:06:16;100760.47;;;18.31
76381;BMP280;65202;52.520;10.528;2023-07-13T04:08:51;100758.00;;;18.36
76381;BMP280;65202;52.520;10.528;2023-07-13T04:11:22;100754.03;;;18.58
76381;BMP280;65202;52.520;10.528;2023-07-13T04:13:50;100756.56;;;18.55
76381;BMP280;65202;52.520;10.528;2023-07-13T04:16:19;100755.72;;;18.57
76381;BMP280;65202;52.520;10.528;2023-07-13T04:18:47;100756.81;;;18.77
76381;BMP280;65202;52.520;10.528;2023-07-13T04:21:16;100767.72;;;18.72
76381;BMP280;65202;52.520;10.528;2023-07-13T04:23:43;100761.00;;;18.74
76381;BMP280;65202;52.520;10.528;2023-07-13T04:26:11;100769.34;;;18.67
76381;BMP280;65202;52.520;10.528;2023-07-13T04:28:39;100761.03;;;18.77
76381;BMP280;65202;52.520;10.528;2023-07-13T04:31:06;100772.06;;;18.80
76381;BMP280;65202;52.520;10.528;2023-07-13T04:33:33;100769.50;;;18.76
76381;BMP280;65202;52.520;10.528;2023-07-13T04:36:00;100775.44;;;18.79
76381;BMP280;65202;52.520;10.528;2023-07-13T04:38:30;100771.41;;;18.95
76381;BMP280;65202;52.520;10.528;2023-07-13T04:41:00;100782.22;;;18.82
76381;BMP280;65202;52.520;10.528;2023-07-13T04:43:30;100784.91;;;18.92
76381;BMP280;65202;52.520;10.528;2023-07-13T04:46:10;100789.16;;;18.95
76381;BMP280;65202;52.520;10.528;2023-07-13T04:48:40;100788.28;;;18.94
76381;BMP280;65202;52.520;10.528;2023-07-13T04:51:07;100791.56;;;18.84
76381;BMP280;65202;52.520;10.528;2023-07-13T04:53:35;100795.91;;;18.94
76381;BMP280;65202;52.520;10.528;2023-07-13T04:56:03;100795.03;;;18.92
76381;BMP280;65202;52.520;10.528;2023-07-13T04:58:31;100801.03;;;18.97
76381;BMP280;65202;52.520;10.528;2023-07-13T05:01:03;100810.28;;;18.94
76381;BMP280;65202;52.520;10.528;2023-07-13T05:03:32;100805.88;;;18.79
76381;BMP280;65202;52.520;10.528;2023-07-13T05:06:02;100808.66;;;19.00
76381;BMP280;65202;52.520;10.528;2023-07-13T05:08:32;100804.53;;;19.08
76381;BMP280;65202;52.520;10.528;2023-07-13T05:11:00;100810.31;;;18.96
76381;BMP280;65202;52.520;10.528;2023-07-13T05:13:29;100811.09;;;18.91
76381;BMP280;65202;52.520;10.528;2023-07-13T05:15:58;100812.66;;;18.80
76381;BMP280;65202;52.520;10.528;2023-07-13T05:18:28;100812.81;;;18.92
76381;BMP280;65202;52.520;10.528;2023-07-13T05:21:05;100815.66;;;19.17
76381;BMP280;65202;52.520;10.528;2023-07-13T05:23:36;100806.19;;;19.06
76381;BMP280;65202;52.520;10.528;2023-07-13T05:26:04;100802.31;;;19.39
76381;BMP280;65202;52.520;10.528;2023-07-13T05:28:35;100808.28;;;19.43
76381;BMP280;65202;52.520;10.528;2023-07-13T05:31:04;100815.19;;;19.56
76381;BMP280;65202;52.520;10.528;2023-07-13T05:33:33;100810.09;;;19.56
76381;BMP280;65202;52.520;10.528;2023-07-13T05:36:01;100818.75;;;19.74
76381;BMP280;65202;52.520;10.528;2023-07-13T05:38:28;100821.00;;;19.43
76381;BMP280;65202;52.520;10.528;2023-07-13T05:40:56;100817.63;;;19.47
76381;BMP280;65202;52.520;10.528;2023-07-13T05:43:24;100813.72;;;19.84
76381;BMP280;65202;52.520;10.528;2023-07-13T05:45:53;100825.53;;;19.76
76381;BMP280;65202;52.520;10.528;2023-07-13T05:48:23;100829.84;;;19.83
76381;BMP280;65202;52.520;10.528;2023-07-13T05:50:51;100832.41;;;19.89
76381;BMP280;65202;52.520;10.528;2023-07-13T05:53:19;100828.19;;;19.90
76381;BMP280;65202;52.520;10.528;2023-07-13T05:55:47;100840.84;;;19.82
76381;BMP280;65202;52.520;10.528;2023-07-13T05:58:17;100835.94;;;20.00
76381;BMP280;65202;52.520;10.528;2023-07-13T06:00:46;100837.66;;;20.04
76381;BMP280;65202;52.520;10.528;2023-07-13T06:03:14;100839.47;;;20.19
76381;BMP280;65202;52.520;10.528;2023-07-13T06:05:42;100842.50;;;19.79
76381;BMP280;65202;52.520;10.528;2023-07-13T06:08:09;100832.66;;;20.19
76381;BMP280;65202;52.520;10.528;2023-07-13T06:10:37;100847.09;;;20.19
76381;BMP280;65202;52.520;10.528;2023-07-13T06:13:04;100846.09;;;19.97
76381;BMP280;65202;52.520;10.528;2023-07-13T06:15:32;100846.03;;;19.91
76381;BMP280;65202;52.520;10.528;2023-07-13T06:18:00;100852.81;;;19.94
76381;BMP280;65202;52.520;10.528;2023-07-13T06:20:28;100847.88;;;20.13
76381;BMP280;65202;52.520;10.528;2023-07-13T06:22:56;100846.16;;;20.09
76381;BMP280;65202;52.520;10.528;2023-07-13T06:25:23;100851.22;;;20.06
76381;BMP280;65202;52.520;10.528;2023-07-13T06:27:50;100849.53;;;20.08
76381;BMP280;65202;52.520;10.528;2023-07-13T06:30:18;100853.06;;;20.25
76381;BMP280;65202;52.520;10.528;2023-07-13T06:32:45;100855.50;;;20.10
76381;BMP280;65202;52.520;10.528;2023-07-13T06:35:12;100856.44;;;20.24
76381;BMP280;65202;52.520;10.528;2023-07-13T06:37:40;100857.50;;;20.59
76381;BMP280;65202;52.520;10.528;2023-07-13T06:40:08;100842.09;;;20.35
76381;BMP280;65202;52.520;10.528;2023-07-13T06:42:36;100861.41;;;20.06
76381;BMP280;65202;52.520;10.528;2023-07-13T06:45:03;100853.88;;;20.23
76381;BMP280;65202;52.520;10.528;2023-07-13T06:47:31;100851.34;;;20.21
76381;BMP280;65202;52.520;10.528;2023-07-13T06:50:00;100853.06;;;20.28
76381;BMP280;65202;52.520;10.528;2023-07-13T06:52:28;100855.66;;;20.34
76381;BMP280;65202;52.520;10.528;2023-07-13T06:54:55;100858.25;;;20.40
76381;BMP280;65202;52.520;10.528;2023-07-13T06:57:22;100854.88;;;20.42
76381;BMP280;65202;52.520;10.528;2023-07-13T06:59:50;100862.22;;;20.04
76381;BMP280;65202;52.520;10.528;2023-07-13T07:02:17;100857.25;;;20.19
76381;BMP280;65202;52.520;10.528;2023-07-13T07:04:44;100850.72;;;20.58
76381;BMP280;65202;52.520;10.528;2023-07-13T07:07:11;100848.16;;;20.53
76381;BMP280;65202;52.520;10.528;2023-07-13T07:09:39;100848.16;;;20.53
76381;BMP280;65202;52.520;10.528;2023-07-13T07:12:06;100843.28;;;20.89
76381;BMP280;65202;52.520;10.528;2023-07-13T07:14:34;100840.75;;;20.98
76381;BMP280;65202;52.520;10.528;2023-07-13T07:17:01;100844.97;;;20.89
76381;BMP280;65202;52.520;10.528;2023-07-13T07:19:30;100850.84;;;20.73
76381;BMP280;65202;52.520;10.528;2023-07-13T07:21:57;100843.97;;;20.61
76381;BMP280;65202;52.520;10.528;2023-07-13T07:24:24;100851.56;;;20.57
76381;BMP280;65202;52.520;10.528;2023-07-13T07:26:52;100835.72;;;21.10
76381;BMP280;65202;52.520;10.528;2023-07-13T07:29:22;100860.28;;;20.97
76381;BMP280;65202;52.520;10.528;2023-07-13T07:31:54;100853.50;;;21.05
76381;BMP280;65202;52.520;10.528;2023-07-13T07:34:25;100845.97;;;21.34
76381;BMP280;65202;52.520;10.528;2023-07-13T07:36:53;100845.09;;;21.24
76381;BMP280;65202;52.520;10.528;2023-07-13T07:39:24;100846.00;;;21.41
76381;BMP280;65202;52.520;10.528;2023-07-13T07:41:51;100843.50;;;21.59
76381;BMP280;65202;52.520;10.528;2023-07-13T07:44:21;100843.50;;;21.93
76381;BMP280;65202;52.520;10.528;2023-07-13T07:46:49;100842.63;;;22.52
76381;BMP280;65202;52.520;10.528;2023-07-13T07:49:16;100841.72;;;22.71
76381;BMP280;65202;52.520;10.528;2023-07-13T07:51:43;100836.56;;;22.77
76381;BMP280;65202;52.520;10.528;2023-07-13T07:54:11;100834.72;;;23.18
76381;BMP280;65202;52.520;10.528;2023-07-13T07:56:49;100834.06;;;24.10
76381;BMP280;65202;52.520;10.528;2023-07-13T07:59:19;100829.84;;;24.06
76381;BMP280;65202;52.520;10.528;2023-07-13T08:01:50;100837.84;;;23.58
76381;BMP280;65202;52.520;10.528;2023-07-13T08:04:20;100853.56;;;22.84
76381;BMP280;65202;52.520;10.528;2023-07-13T08:06:50;100846.91;;;22.23
76381;BMP280;65202;52.520;10.528;2023-07-13T08:09:17;100848.59;;;22.39
76381;BMP280;65202;52.520;10.528;2023-07-13T08:11:44;100860.53;;;22.28
76381;BMP280;65202;52.520;10.528;2023-07-13T08:14:15;100852.00;;;22.25
76381;BMP280;65202;52.520;10.528;2023-07-13T08:16:42;100847.75;;;22.19
76381;BMP280;65202;52.520;10.528;2023-07-13T08:19:10;100858.78;;;21.86
76381;BMP280;65202;52.520;10.528;2023-07-13T08:21:38;100852.84;;;22.03
76381;BMP280;65202;52.520;10.528;2023-07-13T08:24:05;100852.00;;;21.79
76381;BMP280;65202;52.520;10.528;2023-07-13T08:26:33;100846.91;;;22.09
76381;BMP280;65202;52.520;10.528;2023-07-13T08:29:00;100850.31;;;22.14
76381;BMP280;65202;52.520;10.528;2023-07-13T08:31:27;100853.66;;;22.54
76381;BMP280;65202;52.520;10.528;2023-07-13T08:33:55;100858.81;;;22.33
76381;BMP280;65202;52.520;10.528;2023-07-13T08:36:22;100851.09;;;22.56
76381;BMP280;65202;52.520;10.528;2023-07-13T08:38:49;100851.16;;;22.29
76381;BMP280;65202;52.520;10.528;2023-07-13T08:41:17;100854.41;;;22.87
76381;BMP280;65202;52.520;10.528;2023-07-13T08:43:47;100863.88;;;22.54
76381;BMP280;65202;52.520;10.528;2023-07-13T08:46:23;100860.44;;;22.58
76381;BMP280;65202;52.520;10.528;2023-07-13T08:48:58;100853.16;;;23.67
76381;BMP280;65202;52.520;10.528;2023-07-13T08:51:42;100852.69;;;22.89
76381;BMP280;65202;52.520;10.528;2023-07-13T08:54:21;100862.19;;;22.55
76381;BMP280;65202;52.520;10.528;2023-07-13T08:56:50;100860.50;;;22.33
76381;BMP280;65202;52.520;10.528;2023-07-13T08:59:25;100853.66;;;22.48
76381;BMP280;65202;52.520;10.528;2023-07-13T09:05:01;100853.56;;;22.80
76381;BMP280;65202;52.520;10.528;2023-07-13T09:11:01;100850.94;;;24.29
76381;BMP280;65202;52.520;10.528;2023-07-13T09:16:09;100854.97;;;23.49
76381;BMP280;65202;52.520;10.528;2023-07-13T09:18:42;100850.03;;;23.24
76381;BMP280;65202;52.520;10.528;2023-07-13T09:21:27;100859.22;;;23.48
76381;BMP280;65202;52.520;10.528;2023-07-13T09:24:14;100857.00;;;24.19
76381;BMP280;65202;52.520;10.528;2023-07-13T09:27:16;100846.94;;;24.83
76381;BMP280;65202;52.520;10.528;2023-07-13T09:29:58;100843.75;;;25.34
76381;BMP280;65202;52.520;10.528;2023-07-13T09:32:32;100843.81;;;25.30
76381;BMP280;65202;52.520;10.528;2023-07-13T09:35:00;100836.28;;;25.19
76381;BMP280;65202;52.520;10.528;2023-07-13T09:37:31;100844.34;;;25.51
76381;BMP280;65202;52.520;10.528;2023-07-13T09:40:01;100854.28;;;25.73
76381;BMP280;65202;52.520;10.528;2023-07-13T09:42:32;100833.91;;;26.62
76381;BMP280;65202;52.520;10.528;2023-07-13T09:45:01;100841.75;;;26.55
76381;BMP280;65202;52.520;10.528;2023-07-13T09:47:31;100843.09;;;26.28
76381;BMP280;65202;52.520;10.528;2023-07-13T09:50:14;100846.22;;;25.42
76381;BMP280;65202;52.520;10.528;2023-07-13T09:52:49;100851.38;;;24.73
76381;BMP280;65202;52.520;10.528;2023-07-13T09:55:24;100849.69;;;24.67
76381;BMP280;65202;52.520;10.528;2023-07-13T09:57:57;100838.75;;;25.25
76381;BMP280;65202;52.520;10.528;2023-07-13T10:00:28;100848.09;;;24.57
76381;BMP280;65202;52.520;10.528;2023-07-13T10:03:21;100852.84;;;24.06
76381;BMP280;65202;52.520;10.528;2023-07-13T10:05:51;100859.25;;;23.46
76381;BMP280;65202;52.520;10.528;2023-07-13T10:08:28;100853.25;;;23.52
76381;BMP280;65202;52.520;10.528;2023-07-13T10:11:02;100863.16;;;24.00
76381;BMP280;65202;52.520;10.528;2023-07-13T10:13:37;100855.72;;;23.70
76381;BMP280;65202;52.520;10.528;2023-07-13T10:16:09;100856.50;;;23.78
76381;BMP280;65202;52.520;10.528;2023-07-13T10:18:45;100860.25;;;23.19
76381;BMP280;65202;52.520;10.528;2023-07-13T10:21:18;100859.50;;;22.95
76381;BMP280;65202;52.520;10.528;2023-07-13T10:24:23;100852.81;;;24.12
76381;BMP280;65202;52.520;10.528;2023-07-13T10:26:57;100858.56;;;25.14
76381;BMP280;65202;52.520;10.528;2023-07-13T10:29:36;100845.09;;;24.94
76381;BMP280;65202;52.520;10.528;2023-07-13T10:32:11;100837.88;;;26.31
76381;BMP280;65202;52.520;10.528;2023-07-13T10:34:42;100834.91;;;26.54
76381;BMP280;65202;52.520;10.528;2023-07-13T10:37:20;100827.94;;;25.04
76381;BMP280;65202;52.520;10.528;2023-07-13T10:39:53;100837.75;;;25.34
76381;BMP280;65202;52.520;10.528;2023-07-13T10:42:32;100844.75;;;25.83
76381;BMP280;65202;52.520;10.528;2023-07-13T10:45:15;100841.75;;;25.54
76381;BMP280;65202;52.520;10.528;2023-07-13T10:47:45;100854.69;;;24.79
76381;BMP280;65202;52.520;10.528;2023-07-13T10:50:18;100851.38;;;24.70
76381;BMP280;65202;52.520;10.528;2023-07-13T10:52:55;100836.75;;;25.43
76381;BMP280;65202;52.520;10.528;2023-07-13T10:55:41;100827.53;;;25.32
76381;BMP280;65202;52.520;10.528;2023-07-13T10:58:32;100829.03;;;25.48
76381;BMP280;65202;52.520;10.528;2023-07-13T11:01:23;100836.63;;;24.89
76381;BMP280;65202;52.520;10.528;2023-07-13T11:04:03;100837.75;;;24.66
76381;BMP280;65202;52.520;10.528;2023-07-13T11:06:36;100845.63;;;24.53
76381;BMP280;65202;52.520;10.528;2023-07-13T11:09:31;100840.75;;;25.62
76381;BMP280;65202;52.520;10.528;2023-07-13T11:12:28;100836.38;;;25.69
76381;BMP280;65202;52.520;10.528;2023-07-13T11:15:27;100832.25;;;24.99
76381;BMP280;65202;52.520;10.528;2023-07-13T11:18:03;100826.03;;;25.19
76381;BMP280;65202;52.520;10.528;2023-07-13T11:20:37;100822.19;;;25.47
76381;BMP280;65202;52.520;10.528;2023-07-13T11:25:39;100832.59;;;25.38
76381;BMP280;65202;52.520;10.528;2023-07-13T11:30:49;100828.88;;;26.09
76381;BMP280;65202;52.520;10.528;2023-07-13T11:33:48;100823.09;;;25.99
76381;BMP280;65202;52.520;10.528;2023-07-13T11:36:20;100834.91;;;25.54
76381;BMP280;65202;52.520;10.528;2023-07-13T11:39:19;100836.47;;;25.03
76381;BMP280;65202;52.520;10.528;2023-07-13T11:41:56;100830.88;;;24.73
76381;BMP280;65202;52.520;10.528;2023-07-13T11:44:27;100834.53;;;24.54
76381;BMP280;65202;52.520;10.528;2023-07-13T11:46:59;100825.56;;;24.86
76381;BMP280;65202;52.520;10.528;2023-07-13T11:49:45;100824.66;;;24.91
76381;BMP280;65202;52.520;10.528;2023-07-13T11:52:19;100830.81;;;24.77
76381;BMP280;65202;52.520;10.528;2023-07-13T11:54:51;100827.19;;;24.94
76381;BMP280;65202;52.520;10.528;2023-07-13T11:57:36;100828.34;;;25.36
76381;BMP280;65202;52.520;10.528;2023-07-13T12:00:14;100827.41;;;25.41
76381;BMP280;65202;52.520;10.528;2023-07-13T12:02:50;100824.47;;;25.66
76381;BMP280;65202;52.520;10.528;2023-07-13T12:05:20;100822.06;;;25.56
76381;BMP280;65202;52.520;10.528;2023-07-13T12:07:48;100814.88;;;25.79
76381;BMP280;65202;52.520;10.528;2023-07-13T12:10:22;100815.50;;;25.37
76381;BMP280;65202;52.520;10.528;2023-07-13T12:12:56;100822.91;;;25.56
76381;BMP280;65202;52.520;10.528;2023-07-13T12:15:38;100816.78;;;25.65
76381;BMP280;65202;52.520;10.528;2023-07-13T12:18:15;100812.53;;;25.02
76381;BMP280;65202;52.520;10.528;2023-07-13T12:20:46;100814.91;;;25.19
76381;BMP280;65202;52.520;10.528;2023-07-13T12:23:28;100813.81;;;25.38
76381;BMP280;65202;52.520;10.528;2023-07-13T12:25:59;100811.25;;;25.38
76381;BMP280;65202;52.520;10.528;2023-07-13T12:28:38;100812.09;;;25.38
76381;BMP280;65202;52.520;10.528;2023-07-13T12:31:34;100828.75;;;26.17
76381;BMP280;65202;52.520;10.528;2023-07-13T12:36:56;100821.53;;;25.89
76381;BMP280;65202;52.520;10.528;2023-07-13T12:39:38;100810.25;;;26.47
76381;BMP280;65202;52.520;10.528;2023-07-13T12:42:27;100812.81;;;25.99
76381;BMP280;65202;52.520;10.528;2023-07-13T12:45:22;100811.25;;;25.92
76381;BMP280;65202;52.520;10.528;2023-07-13T12:48:03;100803.03;;;25.69
76381;BMP280;65202;52.520;10.528;2023-07-13T12:50:39;100818.25;;;25.27
76381;BMP280;65202;52.520;10.528;2023-07-13T12:53:16;100824.72;;;25.48
76381;BMP280;65202;52.520;10.528;2023-07-13T12:55:53;100813.19;;;25.76
76381;BMP280;65202;52.520;10.528;2023-07-13T12:58:37;100807.31;;;25.14
76381;BMP280;65202;52.520;10.528;2023-07-13T13:01:13;100817.66;;;26.15
76381;BMP280;65202;52.520;10.528;2023-07-13T13:03:47;100810.97;;;26.08
76381;BMP280;65202;52.520;10.528;2023-07-13T13:08:48;100819.31;;;25.11
76381;BMP280;65202;52.520;10.528;2023-07-13T13:11:21;100826.31;;;24.19
76381;BMP280;65202;52.520;10.528;2023-07-13T13:13:50;100827.34;;;24.00
76381;BMP280;65202;52.520;10.528;2023-07-13T13:18:54;100834.69;;;23.21
76381;BMP280;65202;52.520;10.528;2023-07-13T13:21:24;100828.28;;;23.92
76381;BMP280;65202;52.520;10.528;2023-07-13T13:23:53;100842.19;;;23.49
76381;BMP280;65202;52.520;10.528;2023-07-13T13:26:22;100842.13;;;23.59
76381;BMP280;65202;52.520;10.528;2023-07-13T13:28:49;100841.50;;;23.22
76381;BMP280;65202;52.520;10.528;2023-07-13T13:31:17;100847.81;;;24.00
76381;BMP280;65202;52.520;10.528;2023-07-13T13:33:45;100849.56;;;23.95
76381;BMP280;65202;52.520;10.528;2023-07-13T13:36:17;100845.25;;;23.97
76381;BMP280;65202;52.520;10.528;2023-07-13T13:38:50;100848.50;;;24.15
76381;BMP280;65202;52.520;10.528;2023-07-13T13:41:17;100849.44;;;24.10
76381;BMP280;65202;52.520;10.528;2023-07-13T13:43:45;100860.78;;;23.75
76381;BMP280;65202;52.520;10.528;2023-07-13T13:46:22;100871.31;;;24.44
76381;BMP280;65202;52.520;10.528;2023-07-13T13:48:52;100865.41;;;24.33
76381;BMP280;65202;52.520;10.528;2023-07-13T13:51:21;100857.50;;;24.57
76381;BMP280;65202;52.520;10.528;2023-07-13T13:53:50;100868.88;;;24.26
76381;BMP280;65202;52.520;10.528;2023-07-13T13:56:19;100867.38;;;24.01
76381;BMP280;65202;52.520;10.528;2023-07-13T13:58:46;100875.78;;;24.16
76381;BMP280;65202;52.520;10.528;2023-07-13T14:01:19;100897.44;;;23.75
76381;BMP280;65202;52.520;10.528;2023-07-13T14:03:49;100921.69;;;22.76
76381;BMP280;65202;52.520;10.528;2023-07-13T14:06:18;100963.88;;;21.19
76381;BMP280;65202;52.520;10.528;2023-07-13T14:08:45;100999.00;;;20.48
76381;BMP280;65202;52.520;10.528;2023-07-13T14:11:17;101037.84;;;20.29
76381;BMP280;65202;52.520;10.528;2023-07-13T14:13:52;101047.88;;;19.48
76381;BMP280;65202;52.520;10.528;2023-07-13T14:16:26;101014.03;;;19.47
76381;BMP280;65202;52.520;10.528;2023-07-13T14:18:56;101007.72;;;19.20
76381;BMP280;65202;52.520;10.528;2023-07-13T14:21:28;101011.97;;;18.66
76381;BMP280;65202;52.520;10.528;2023-07-13T14:23:56;101014.75;;;19.39
76381;BMP280;65202;52.520;10.528;2023-07-13T14:26:25;101009.75;;;19.43
76381;BMP280;65202;52.520;10.528;2023-07-13T14:28:56;101020.31;;;19.11
76381;BMP280;65202;52.520;10.528;2023-07-13T14:31:26;101017.31;;;19.40